sensor_id;sensor_type;location;lat;lon;timestamp;P1;durP1;ratioP1;P2;durP2;ratioP2
8102;SDS011;4094;49.948;11.574;2023-04-01T00:00:06;5.67;;;5.23;;
8102;SDS011;4094;49.948;11.574;2023-04-01T00:02:38;6.07;;;5.57;;
8102;SDS011;4094;49.948;11.574;2023-04-01T00:05:08;5.90;;;5.50;;
8102;SDS011;4094;49.948;11.574;2023-04-01T00:07:39;5.80;;;5.30;;
8102;SDS011;4094;49.948;11.574;2023-04-01T00:10:09;6.67;;;6.07;;
8102;SDS011;4094;49.948;11.574;2023-04-01T00:12:39;5.47;;;5.17;;
8102;SDS011;4094;49.948;11.574;2023-04-01T00:15:11;5.90;;;5.40;;
8102;SDS011;4094;49.948;11.574;2023-04-01T00:17:40;5.90;;;5.60;;
8102;SDS011;4094;49.948;11.574;2023-04-01T00:20:10;6.40;;;5.80;;
8102;SDS011;4094;49.948;11.574;2023-04-01T00:22:41;6.13;;;5.63;;
8102;SDS011;4094;49.948;11.574;2023-04-01T00:25:10;5.80;;;5.40;;
8102;SDS011;4094;49.948;11.574;2023-04-01T00:27:40;5.50;;;5.20;;
8102;SDS011;4094;49.948;11.574;2023-04-01T00:30:10;6.23;;;5.80;;
8102;SDS011;4094;49.948;11.574;2023-04-01T00:32:40;5.77;;;5.47;;
8102;SDS011;4094;49.948;11.574;2023-04-01T00:35:09;5.80;;;5.30;;
8102;SDS011;4094;49.948;11.574;2023-04-01T00:37:39;5.53;;;5.13;;
8102;SDS011;4094;49.948;11.574;2023-04-01T00:40:17;5.87;;;5.47;;
8102;SDS011;4094;49.948;11.574;2023-04-01T00:42:52;6.10;;;5.70;;
8102;SDS011;4094;49.948;11.574;2023-04-01T00:45:27;6.27;;;5.80;;
8102;SDS011;4094;49.948;11.574;2023-04-01T00:48:04;6.30;;;5.80;;
8102;SDS011;4094;49.948;11.574;2023-04-01T00:50:38;6.67;;;6.23;;
8102;SDS011;4094;49.948;11.574;2023-04-01T00:53:09;6.67;;;6.17;;
8102;SDS011;4094;49.948;11.574;2023-04-01T00:55:40;6.00;;;5.60;;
8102;SDS011;4094;49.948;11.574;2023-04-01T00:58:14;6.60;;;6.20;;
8102;SDS011;4094;49.948;11.574;2023-04-01T01:00:48;6.37;;;5.90;;
8102;SDS011;4094;49.948;11.574;2023-04-01T01:03:18;6.03;;;5.57;;
8102;SDS011;4094;49.948;11.574;2023-04-01T01:08:48;5.90;;;5.50;;
8102;SDS011;4094;49.948;11.574;2023-04-01T01:11:33;6.43;;;5.93;;
8102;SDS011;4094;49.948;11.574;2023-04-01T01:14:12;6.13;;;5.63;;
8102;SDS011;4094;49.948;11.574;2023-04-01T01:16:58;6.50;;;6.00;;
8102;SDS011;4094;49.948;11.574;2023-04-01T01:19:43;5.50;;;5.17;;
8102;SDS011;4094;49.948;11.574;2023-04-01T01:22:31;6.03;;;5.53;;
8102;SDS011;4094;49.948;11.574;2023-04-01T01:25:10;6.40;;;6.00;;
8102;SDS011;4094;49.948;11.574;2023-04-01T01:27:57;6.93;;;6.43;;
8102;SDS011;4094;49.948;11.574;2023-04-01T01:30:37;6.20;;;5.73;;
8102;SDS011;4094;49.948;11.574;2023-04-01T01:36:05;6.67;;;6.07;;
8102;SDS011;4094;49.948;11.574;2023-04-01T01:38:37;6.23;;;5.80;;
8102;SDS011;4094;49.948;11.574;2023-04-01T01:41:07;6.33;;;5.93;;
8102;SDS011;4094;49.948;11.574;2023-04-01T01:43:39;6.50;;;6.00;;
8102;SDS011;4094;49.948;11.574;2023-04-01T01:46:14;6.57;;;6.07;;
8102;SDS011;4094;49.948;11.574;2023-04-01T01:48:47;6.10;;;5.60;;
8102;SDS011;4094;49.948;11.574;2023-04-01T01:51:20;5.87;;;5.37;;
8102;SDS011;4094;49.948;11.574;2023-04-01T01:53:51;7.10;;;6.40;;
8102;SDS011;4094;49.948;11.574;2023-04-01T01:56:21;6.00;;;5.60;;
8102;SDS011;4094;49.948;11.574;2023-04-01T01:58:54;6.70;;;6.07;;
8102;SDS011;4094;49.948;11.574;2023-04-01T02:01:29;6.57;;;6.17;;
8102;SDS011;4094;49.948;11.574;2023-04-01T02:04:08;6.27;;;5.83;;
8102;SDS011;4094;49.948;11.574;2023-04-01T02:06:42;6.00;;;5.47;;
8102;SDS011;4094;49.948;11.574;2023-04-01T02:09:16;6.43;;;5.97;;
8102;SDS011;4094;49.948;11.574;2023-04-01T02:11:45;6.70;;;6.20;;
8102;SDS011;4094;49.948;11.574;2023-04-01T02:14:18;6.10;;;5.63;;
8102;SDS011;4094;49.948;11.574;2023-04-01T02:16:50;6.07;;;5.67;;
8102;SDS011;4094;49.948;11.574;2023-04-01T02:19:23;5.97;;;5.67;;
8102;SDS011;4094;49.948;11.574;2023-04-01T02:21:59;5.37;;;5.07;;
8102;SDS011;4094;49.948;11.574;2023-04-01T02:24:31;6.17;;;5.57;;
8102;SDS011;4094;49.948;11.574;2023-04-01T02:27:03;6.43;;;5.90;;
8102;SDS011;4094;49.948;11.574;2023-04-01T02:29:33;5.97;;;5.57;;
8102;SDS011;4094;49.948;11.574;2023-04-01T02:32:07;6.87;;;6.27;;
8102;SDS011;4094;49.948;11.574;2023-04-01T02:34:37;6.50;;;6.00;;
8102;SDS011;4094;49.948;11.574;2023-04-01T02:37:08;6.27;;;5.70;;
8102;SDS011;4094;49.948;11.574;2023-04-01T02:39:37;6.80;;;6.20;;
8102;SDS011;4094;49.948;11.574;2023-04-01T02:42:07;6.17;;;5.73;;
8102;SDS011;4094;49.948;11.574;2023-04-01T02:44:36;6.40;;;5.90;;
8102;SDS011;4094;49.948;11.574;2023-04-01T02:47:05;6.47;;;6.07;;
8102;SDS011;4094;49.948;11.574;2023-04-01T02:49:34;6.33;;;5.83;;
8102;SDS011;4094;49.948;11.574;2023-04-01T02:52:03;5.90;;;5.50;;
8102;SDS011;4094;49.948;11.574;2023-04-01T02:54:34;6.17;;;5.77;;
8102;SDS011;4094;49.948;11.574;2023-04-01T02:57:02;6.03;;;5.53;;
8102;SDS011;4094;49.948;11.574;2023-04-01T02:59:32;6.80;;;6.30;;
8102;SDS011;4094;49.948;11.574;2023-04-01T03:02:01;6.00;;;5.40;;
8102;SDS011;4094;49.948;11.574;2023-04-01T03:04:30;5.77;;;5.37;;
8102;SDS011;4094;49.948;11.574;2023-04-01T03:06:59;6.17;;;5.67;;
8102;SDS011;4094;49.948;11.574;2023-04-01T03:09:28;6.53;;;5.87;;
8102;SDS011;4094;49.948;11.574;2023-04-01T03:11:58;6.30;;;5.70;;
8102;SDS011;4094;49.948;11.574;2023-04-01T03:14:28;6.47;;;5.97;;
8102;SDS011;4094;49.948;11.574;2023-04-01T03:16:57;6.43;;;6.03;;
8102;SDS011;4094;49.948;11.574;2023-04-01T03:19:26;6.23;;;5.83;;
8102;SDS011;4094;49.948;11.574;2023-04-01T03:21:55;6.30;;;5.80;;
8102;SDS011;4094;49.948;11.574;2023-04-01T03:24:24;6.37;;;5.90;;
8102;SDS011;4094;49.948;11.574;2023-04-01T03:26:53;6.13;;;5.63;;
8102;SDS011;4094;49.948;11.574;2023-04-01T03:29:23;6.37;;;5.97;;
8102;SDS011;4094;49.948;11.574;2023-04-01T03:31:52;6.00;;;5.60;;
8102;SDS011;4094;49.948;11.574;2023-04-01T03:34:25;6.63;;;5.97;;
8102;SDS011;4094;49.948;11.574;2023-04-01T03:36:54;6.60;;;6.00;;
8102;SDS011;4094;49.948;11.574;2023-04-01T03:39:23;6.80;;;6.23;;
8102;SDS011;4094;49.948;11.574;2023-04-01T03:41:52;6.43;;;5.83;;
8102;SDS011;4094;49.948;11.574;2023-04-01T03:44:21;6.20;;;5.70;;
8102;SDS011;4094;49.948;11.574;2023-04-01T03:46:53;6.00;;;5.67;;
8102;SDS011;4094;49.948;11.574;2023-04-01T03:49:22;6.23;;;5.93;;
8102;SDS011;4094;49.948;11.574;2023-04-01T03:51:51;6.50;;;6.00;;
8102;SDS011;4094;49.948;11.574;2023-04-01T03:54:21;6.40;;;5.90;;
8102;SDS011;4094;49.948;11.574;2023-04-01T03:56:50;5.37;;;5.03;;
8102;SDS011;4094;49.948;11.574;2023-04-01T03:59:19;6.37;;;5.80;;
8102;SDS011;4094;49.948;11.574;2023-04-01T04:01:50;6.27;;;5.80;;
8102;SDS011;4094;49.948;11.574;2023-04-01T04:04:19;6.40;;;6.00;;
8102;SDS011;4094;49.948;11.574;2023-04-01T04:06:49;6.30;;;5.80;;
8102;SDS011;4094;49.948;11.574;2023-04-01T04:09:20;6.50;;;6.00;;
8102;SDS011;4094;49.948;11.574;2023-04-01T04:11:49;6.03;;;5.63;;
8102;SDS011;4094;49.948;11.574;2023-04-01T04:14:19;6.53;;;6.10;;
8102;SDS011;4094;49.948;11.574;2023-04-01T04:16:48;6.47;;;6.00;;
8102;SDS011;4094;49.948;11.574;2023-04-01T04:19:19;5.93;;;5.43;;
8102;SDS011;4094;49.948;11.574;2023-04-01T04:21:48;5.87;;;5.50;;
8102;SDS011;4094;49.948;11.574;2023-04-01T04:24:17;6.67;;;6.17;;
8102;SDS011;4094;49.948;11.574;2023-04-01T04:26:59;5.97;;;5.37;;
8102;SDS011;4094;49.948;11.574;2023-04-01T04:29:28;6.23;;;5.80;;
8102;SDS011;4094;49.948;11.574;2023-04-01T04:32:00;6.27;;;5.87;;
8102;SDS011;4094;49.948;11.574;2023-04-01T04:34:30;5.87;;;5.43;;
8102;SDS011;4094;49.948;11.574;2023-04-01T04:37:00;6.20;;;5.60;;
8102;SDS011;4094;49.948;11.574;2023-04-01T04:39:33;6.67;;;6.13;;
8102;SDS011;4094;49.948;11.574;2023-04-01T04:42:03;6.70;;;6.10;;
8102;SDS011;4094;49.948;11.574;2023-04-01T04:44:32;6.00;;;5.40;;
8102;SDS011;4094;49.948;11.574;2023-04-01T04:47:02;5.80;;;5.47;;
8102;SDS011;4094;49.948;11.574;2023-04-01T04:49:32;6.30;;;5.70;;
8102;SDS011;4094;49.948;11.574;2023-04-01T04:52:06;5.83;;;5.33;;
8102;SDS011;4094;49.948;11.574;2023-04-01T04:54:35;5.63;;;5.20;;
8102;SDS011;4094;49.948;11.574;2023-04-01T04:57:05;6.30;;;5.80;;
8102;SDS011;4094;49.948;11.574;2023-04-01T04:59:41;6.30;;;5.70;;
8102;SDS011;4094;49.948;11.574;2023-04-01T05:02:13;6.57;;;5.97;;
8102;SDS011;4094;49.948;11.574;2023-04-01T05:04:44;6.23;;;5.83;;
8102;SDS011;4094;49.948;11.574;2023-04-01T05:07:13;6.67;;;6.17;;
8102;SDS011;4094;49.948;11.574;2023-04-01T05:09:43;6.23;;;5.83;;
8102;SDS011;4094;49.948;11.574;2023-04-01T05:12:13;5.97;;;5.50;;
8102;SDS011;4094;49.948;11.574;2023-04-01T05:15:09;6.30;;;5.77;;
8102;SDS011;4094;49.948;11.574;2023-04-01T05:17:38;6.10;;;5.70;;
8102;SDS011;4094;49.948;11.574;2023-04-01T05:20:12;6.20;;;5.80;;
8102;SDS011;4094;49.948;11.574;2023-04-01T05:22:42;5.93;;;5.50;;
8102;SDS011;4094;49.948;11.574;2023-04-01T05:25:11;6.03;;;5.53;;
8102;SDS011;4094;49.948;11.574;2023-04-01T05:27:40;6.20;;;5.80;;
8102;SDS011;4094;49.948;11.574;2023-04-01T05:30:10;6.47;;;5.87;;
8102;SDS011;4094;49.948;11.574;2023-04-01T05:33:00;6.73;;;6.00;;
8102;SDS011;4094;49.948;11.574;2023-04-01T05:35:30;6.50;;;6.00;;
8102;SDS011;4094;49.948;11.574;2023-04-01T05:38:00;5.90;;;5.50;;
8102;SDS011;4094;49.948;11.574;2023-04-01T05:40:29;6.07;;;5.57;;
8102;SDS011;4094;49.948;11.574;2023-04-01T05:42:59;6.20;;;5.70;;
8102;SDS011;4094;49.948;11.574;2023-04-01T05:45:28;5.97;;;5.57;;
8102;SDS011;4094;49.948;11.574;2023-04-01T05:48:21;6.60;;;6.00;;
8102;SDS011;4094;49.948;11.574;2023-04-01T05:50:51;6.23;;;5.80;;
8102;SDS011;4094;49.948;11.574;2023-04-01T05:53:20;6.30;;;5.90;;
8102;SDS011;4094;49.948;11.574;2023-04-01T05:55:49;6.07;;;5.70;;
8102;SDS011;4094;49.948;11.574;2023-04-01T05:58:18;6.40;;;6.00;;
8102;SDS011;4094;49.948;11.574;2023-04-01T06:00:47;6.10;;;5.70;;
8102;SDS011;4094;49.948;11.574;2023-04-01T06:03:34;6.27;;;5.87;;
8102;SDS011;4094;49.948;11.574;2023-04-01T06:06:08;6.27;;;5.80;;
8102;SDS011;4094;49.948;11.574;2023-04-01T06:08:43;8.40;;;6.30;;
8102;SDS011;4094;49.948;11.574;2023-04-01T06:11:16;6.50;;;6.10;;
8102;SDS011;4094;49.948;11.574;2023-04-01T06:13:59;6.23;;;5.80;;
8102;SDS011;4094;49.948;11.574;2023-04-01T06:16:41;6.13;;;5.73;;
8102;SDS011;4094;49.948;11.574;2023-04-01T06:22:14;6.63;;;6.13;;
8102;SDS011;4094;49.948;11.574;2023-04-01T06:25:11;6.33;;;5.80;;
8102;SDS011;4094;49.948;11.574;2023-04-01T06:27:53;6.40;;;5.90;;
8102;SDS011;4094;49.948;11.574;2023-04-01T06:30:47;5.83;;;5.53;;
8102;SDS011;4094;49.948;11.574;2023-04-01T06:33:34;6.17;;;5.77;;
8102;SDS011;4094;49.948;11.574;2023-04-01T06:45:27;6.23;;;5.77;;
8102;SDS011;4094;49.948;11.574;2023-04-01T06:48:33;6.43;;;5.87;;
8102;SDS011;4094;49.948;11.574;2023-04-01T06:51:42;6.40;;;5.90;;
8102;SDS011;4094;49.948;11.574;2023-04-01T06:54:38;5.97;;;5.57;;
8102;SDS011;4094;49.948;11.574;2023-04-01T06:57:31;6.07;;;5.60;;
8102;SDS011;4094;49.948;11.574;2023-04-01T07:00:10;6.47;;;5.83;;
8102;SDS011;4094;49.948;11.574;2023-04-01T07:02:45;5.70;;;5.40;;
8102;SDS011;4094;49.948;11.574;2023-04-01T07:05:22;6.33;;;5.73;;
8102;SDS011;4094;49.948;11.574;2023-04-01T07:07:52;6.30;;;5.77;;
8102;SDS011;4094;49.948;11.574;2023-04-01T07:10:25;6.47;;;5.97;;
8102;SDS011;4094;49.948;11.574;2023-04-01T07:13:09;6.23;;;5.80;;
8102;SDS011;4094;49.948;11.574;2023-04-01T07:15:57;5.97;;;5.57;;
8102;SDS011;4094;49.948;11.574;2023-04-01T07:18:37;6.73;;;6.13;;
8102;SDS011;4094;49.948;11.574;2023-04-01T07:21:15;6.27;;;5.80;;
8102;SDS011;4094;49.948;11.574;2023-04-01T07:23:56;6.17;;;5.70;;
8102;SDS011;4094;49.948;11.574;2023-04-01T07:26:36;6.00;;;5.67;;
8102;SDS011;4094;49.948;11.574;2023-04-01T07:29:11;5.93;;;5.57;;
8102;SDS011;4094;49.948;11.574;2023-04-01T07:31:57;6.23;;;5.73;;
8102;SDS011;4094;49.948;11.574;2023-04-01T07:34:35;6.23;;;5.83;;
8102;SDS011;4094;49.948;11.574;2023-04-01T07:37:15;5.90;;;5.50;;
8102;SDS011;4094;49.948;11.574;2023-04-01T07:39:51;6.10;;;5.70;;
8102;SDS011;4094;49.948;11.574;2023-04-01T07:42:35;5.90;;;5.60;;
8102;SDS011;4094;49.948;11.574;2023-04-01T07:45:15;6.00;;;5.70;;
8102;SDS011;4094;49.948;11.574;2023-04-01T07:48:06;5.90;;;5.60;;
8102;SDS011;4094;49.948;11.574;2023-04-01T07:50:46;5.90;;;5.60;;
8102;SDS011;4094;49.948;11.574;2023-04-01T07:53:22;5.67;;;5.37;;
8102;SDS011;4094;49.948;11.574;2023-04-01T07:56:00;6.47;;;5.80;;
8102;SDS011;4094;49.948;11.574;2023-04-01T07:58:39;6.37;;;5.97;;
8102;SDS011;4094;49.948;11.574;2023-04-01T08:01:42;6.93;;;6.33;;
8102;SDS011;4094;49.948;11.574;2023-04-01T08:04:22;5.83;;;5.37;;
8102;SDS011;4094;49.948;11.574;2023-04-01T08:06:58;5.80;;;5.50;;
8102;SDS011;4094;49.948;11.574;2023-04-01T08:09:38;6.20;;;5.70;;
8102;SDS011;4094;49.948;11.574;2023-04-01T08:12:47;6.03;;;5.63;;
8102;SDS011;4094;49.948;11.574;2023-04-01T08:15:42;6.17;;;5.77;;
8102;SDS011;4094;49.948;11.574;2023-04-01T08:18:43;6.40;;;6.00;;
8102;SDS011;4094;49.948;11.574;2023-04-01T08:21:19;6.00;;;5.70;;
8102;SDS011;4094;49.948;11.574;2023-04-01T08:23:54;6.03;;;5.73;;
8102;SDS011;4094;49.948;11.574;2023-04-01T08:26:27;6.20;;;5.77;;
8102;SDS011;4094;49.948;11.574;2023-04-01T08:29:02;5.83;;;5.53;;
8102;SDS011;4094;49.948;11.574;2023-04-01T08:31:35;5.90;;;5.40;;
8102;SDS011;4094;49.948;11.574;2023-04-01T08:34:13;6.00;;;5.70;;
8102;SDS011;4094;49.948;11.574;2023-04-01T08:36:46;5.67;;;5.37;;
8102;SDS011;4094;49.948;11.574;2023-04-01T08:39:22;5.80;;;5.47;;
8102;SDS011;4094;49.948;11.574;2023-04-01T08:48:33;5.63;;;5.30;;
8102;SDS011;4094;49.948;11.574;2023-04-01T08:51:26;5.83;;;5.43;;
8102;SDS011;4094;49.948;11.574;2023-04-01T08:57:12;5.73;;;5.33;;
8102;SDS011;4094;49.948;11.574;2023-04-01T09:00:19;5.70;;;5.40;;
8102;SDS011;4094;49.948;11.574;2023-04-01T09:03:31;5.63;;;5.33;;
8102;SDS011;4094;49.948;11.574;2023-04-01T09:06:31;5.73;;;5.33;;
8102;SDS011;4094;49.948;11.574;2023-04-01T09:12:18;5.50;;;5.20;;
8102;SDS011;4094;49.948;11.574;2023-04-01T09:21:22;6.03;;;5.60;;
8102;SDS011;4094;49.948;11.574;2023-04-01T09:27:10;5.60;;;5.30;;
8102;SDS011;4094;49.948;11.574;2023-04-01T09:29:54;5.87;;;5.37;;
8102;SDS011;4094;49.948;11.574;2023-04-01T09:32:55;5.80;;;5.50;;
8102;SDS011;4094;49.948;11.574;2023-04-01T09:35:46;5.30;;;5.10;;
8102;SDS011;4094;49.948;11.574;2023-04-01T09:38:20;5.70;;;5.40;;
8102;SDS011;4094;49.948;11.574;2023-04-01T09:40:56;4.83;;;4.53;;
8102;SDS011;4094;49.948;11.574;2023-04-01T09:43:39;5.17;;;4.97;;
8102;SDS011;4094;49.948;11.574;2023-04-01T09:46:26;5.50;;;5.20;;
8102;SDS011;4094;49.948;11.574;2023-04-01T09:49:13;4.93;;;4.63;;
8102;SDS011;4094;49.948;11.574;2023-04-01T09:51:55;5.30;;;5.00;;
8102;SDS011;4094;49.948;11.574;2023-04-01T09:54:43;5.20;;;4.90;;
8102;SDS011;4094;49.948;11.574;2023-04-01T09:57:33;5.43;;;5.13;;
8102;SDS011;4094;49.948;11.574;2023-04-01T10:01:04;5.17;;;4.87;;
8102;SDS011;4094;49.948;11.574;2023-04-01T10:07:23;4.83;;;4.63;;
8102;SDS011;4094;49.948;11.574;2023-04-01T10:10:32;5.07;;;4.77;;
8102;SDS011;4094;49.948;11.574;2023-04-01T10:16:43;4.90;;;4.60;;
8102;SDS011;4094;49.948;11.574;2023-04-01T10:19:47;4.63;;;4.33;;
8102;SDS011;4094;49.948;11.574;2023-04-01T10:22:50;4.93;;;4.67;;
8102;SDS011;4094;49.948;11.574;2023-04-01T10:25:38;4.77;;;4.57;;
8102;SDS011;4094;49.948;11.574;2023-04-01T10:28:36;4.53;;;4.33;;
8102;SDS011;4094;49.948;11.574;2023-04-01T10:31:50;4.43;;;4.13;;
8102;SDS011;4094;49.948;11.574;2023-04-01T10:34:43;4.87;;;4.67;;
8102;SDS011;4094;49.948;11.574;2023-04-01T10:40:56;4.80;;;4.60;;
8102;SDS011;4094;49.948;11.574;2023-04-01T10:44:11;4.60;;;4.40;;
8102;SDS011;4094;49.948;11.574;2023-04-01T10:47:28;5.03;;;4.63;;
8102;SDS011;4094;49.948;11.574;2023-04-01T10:50:23;5.37;;;5.03;;
8102;SDS011;4094;49.948;11.574;2023-04-01T10:56:33;5.17;;;4.97;;
8102;SDS011;4094;49.948;11.574;2023-04-01T10:59:45;5.00;;;4.70;;
8102;SDS011;4094;49.948;11.574;2023-04-01T11:03:24;4.90;;;4.70;;
8102;SDS011;4094;49.948;11.574;2023-04-01T11:06:45;4.70;;;4.50;;
8102;SDS011;4094;49.948;11.574;2023-04-01T11:13:02;4.63;;;4.43;;
8102;SDS011;4094;49.948;11.574;2023-04-01T11:24:55;4.47;;;4.27;;
8102;SDS011;4094;49.948;11.574;2023-04-01T11:31:39;4.50;;;4.30;;
8102;SDS011;4094;49.948;11.574;2023-04-01T11:34:32;4.57;;;4.37;;
8102;SDS011;4094;49.948;11.574;2023-04-01T11:37:15;4.73;;;4.53;;
8102;SDS011;4094;49.948;11.574;2023-04-01T11:40:16;5.07;;;4.73;;
8102;SDS011;4094;49.948;11.574;2023-04-01T11:43:32;5.00;;;4.80;;
8102;SDS011;4094;49.948;11.574;2023-04-01T11:46:24;4.53;;;4.33;;
8102;SDS011;4094;49.948;11.574;2023-04-01T11:49:02;4.80;;;4.53;;
8102;SDS011;4094;49.948;11.574;2023-04-01T11:54:46;4.90;;;4.70;;
8102;SDS011;4094;49.948;11.574;2023-04-01T11:57:34;4.87;;;4.67;;
8102;SDS011;4094;49.948;11.574;2023-04-01T12:00:17;4.80;;;4.60;;
8102;SDS011;4094;49.948;11.574;2023-04-01T12:03:00;4.70;;;4.50;;
8102;SDS011;4094;49.948;11.574;2023-04-01T12:05:41;5.03;;;4.83;;
8102;SDS011;4094;49.948;11.574;2023-04-01T12:08:23;4.87;;;4.67;;
8102;SDS011;4094;49.948;11.574;2023-04-01T12:11:00;5.13;;;4.90;;
8102;SDS011;4094;49.948;11.574;2023-04-01T12:13:39;4.60;;;4.40;;
8102;SDS011;4094;49.948;11.574;2023-04-01T12:16:20;4.90;;;4.70;;
8102;SDS011;4094;49.948;11.574;2023-04-01T12:19:16;5.10;;;4.80;;
8102;SDS011;4094;49.948;11.574;2023-04-01T12:21:56;5.03;;;4.73;;
8102;SDS011;4094;49.948;11.574;2023-04-01T12:24:45;4.80;;;4.60;;
8102;SDS011;4094;49.948;11.574;2023-04-01T12:30:24;4.60;;;4.40;;
8102;SDS011;4094;49.948;11.574;2023-04-01T12:36:08;4.83;;;4.63;;
8102;SDS011;4094;49.948;11.574;2023-04-01T12:38:51;4.77;;;4.57;;
8102;SDS011;4094;49.948;11.574;2023-04-01T12:41:35;4.90;;;4.70;;
8102;SDS011;4094;49.948;11.574;2023-04-01T12:44:26;4.67;;;4.47;;
8102;SDS011;4094;49.948;11.574;2023-04-01T12:47:09;5.10;;;4.90;;
8102;SDS011;4094;49.948;11.574;2023-04-01T12:49:55;4.63;;;4.43;;
8102;SDS011;4094;49.948;11.574;2023-04-01T12:52:59;4.67;;;4.47;;
8102;SDS011;4094;49.948;11.574;2023-04-01T12:55:40;5.00;;;4.80;;
8102;SDS011;4094;49.948;11.574;2023-04-01T13:01:27;4.57;;;4.37;;
8102;SDS011;4094;49.948;11.574;2023-04-01T13:04:08;4.80;;;4.60;;
8102;SDS011;4094;49.948;11.574;2023-04-01T13:10:06;5.00;;;4.80;;
8102;SDS011;4094;49.948;11.574;2023-04-01T13:12:47;4.90;;;4.70;;
8102;SDS011;4094;49.948;11.574;2023-04-01T13:15:31;5.10;;;4.80;;
8102;SDS011;4094;49.948;11.574;2023-04-01T13:18:16;4.93;;;4.73;;
8102;SDS011;4094;49.948;11.574;2023-04-01T13:20:53;4.87;;;4.63;;
8102;SDS011;4094;49.948;11.574;2023-04-01T13:23:34;5.10;;;4.80;;
8102;SDS011;4094;49.948;11.574;2023-04-01T13:26:13;5.20;;;4.90;;
8102;SDS011;4094;49.948;11.574;2023-04-01T13:28:52;5.20;;;4.90;;
8102;SDS011;4094;49.948;11.574;2023-04-01T13:31:32;5.10;;;4.90;;
8102;SDS011;4094;49.948;11.574;2023-04-01T13:34:21;5.23;;;4.93;;
8102;SDS011;4094;49.948;11.574;2023-04-01T13:37:14;5.37;;;5.07;;
8102;SDS011;4094;49.948;11.574;2023-04-01T13:39:57;4.93;;;4.73;;
8102;SDS011;4094;49.948;11.574;2023-04-01T13:42:43;5.03;;;4.83;;
8102;SDS011;4094;49.948;11.574;2023-04-01T13:45:19;4.87;;;4.67;;
8102;SDS011;4094;49.948;11.574;2023-04-01T13:54:15;5.20;;;4.90;;
8102;SDS011;4094;49.948;11.574;2023-04-01T13:57:17;5.27;;;4.90;;
8102;SDS011;4094;49.948;11.574;2023-04-01T14:00:03;4.80;;;4.60;;
8102;SDS011;4094;49.948;11.574;2023-04-01T14:02:55;4.93;;;4.43;;
8102;SDS011;4094;49.948;11.574;2023-04-01T14:05:50;4.83;;;4.63;;
8102;SDS011;4094;49.948;11.574;2023-04-01T14:08:29;4.87;;;4.67;;
8102;SDS011;4094;49.948;11.574;2023-04-01T14:11:13;4.73;;;4.53;;
8102;SDS011;4094;49.948;11.574;2023-04-01T14:13:48;5.07;;;4.87;;
8102;SDS011;4094;49.948;11.574;2023-04-01T14:16:32;4.80;;;4.60;;
8102;SDS011;4094;49.948;11.574;2023-04-01T14:19:31;4.83;;;4.50;;
8102;SDS011;4094;49.948;11.574;2023-04-01T14:22:19;4.87;;;4.67;;
8102;SDS011;4094;49.948;11.574;2023-04-01T14:25:04;4.87;;;4.67;;
8102;SDS011;4094;49.948;11.574;2023-04-01T14:27:47;4.77;;;4.57;;
8102;SDS011;4094;49.948;11.574;2023-04-01T14:30:36;4.90;;;4.70;;
8102;SDS011;4094;49.948;11.574;2023-04-01T14:33:19;4.90;;;4.70;;
8102;SDS011;4094;49.948;11.574;2023-04-01T14:35:57;4.83;;;4.63;;
8102;SDS011;4094;49.948;11.574;2023-04-01T14:38:58;4.87;;;4.63;;
8102;SDS011;4094;49.948;11.574;2023-04-01T14:41:40;4.90;;;4.60;;
8102;SDS011;4094;49.948;11.574;2023-04-01T14:44:18;5.20;;;5.00;;
8102;SDS011;4094;49.948;11.574;2023-04-01T14:47:11;4.80;;;4.60;;
8102;SDS011;4094;49.948;11.574;2023-04-01T14:49:53;4.60;;;4.40;;
8102;SDS011;4094;49.948;11.574;2023-04-01T14:52:32;4.83;;;4.63;;
8102;SDS011;4094;49.948;11.574;2023-04-01T14:55:16;4.83;;;4.63;;
8102;SDS011;4094;49.948;11.574;2023-04-01T14:57:59;5.10;;;4.80;;
8102;SDS011;4094;49.948;11.574;2023-04-01T15:00:51;4.47;;;4.27;;
8102;SDS011;4094;49.948;11.574;2023-04-01T15:03:36;4.77;;;4.57;;
8102;SDS011;4094;49.948;11.574;2023-04-01T15:06:24;4.70;;;4.50;;
8102;SDS011;4094;49.948;11.574;2023-04-01T15:09:08;4.70;;;4.50;;
8102;SDS011;4094;49.948;11.574;2023-04-01T15:11:54;4.73;;;4.53;;
8102;SDS011;4094;49.948;11.574;2023-04-01T15:14:39;5.10;;;4.90;;
8102;SDS011;4094;49.948;11.574;2023-04-01T15:20:33;4.97;;;4.77;;
8102;SDS011;4094;49.948;11.574;2023-04-01T15:23:23;5.07;;;4.87;;
8102;SDS011;4094;49.948;11.574;2023-04-01T15:26:11;5.10;;;4.90;;
8102;SDS011;4094;49.948;11.574;2023-04-01T15:28:54;5.03;;;4.83;;
8102;SDS011;4094;49.948;11.574;2023-04-01T15:31:36;5.00;;;4.80;;
8102;SDS011;4094;49.948;11.574;2023-04-01T15:34:19;4.73;;;4.53;;
8102;SDS011;4094;49.948;11.574;2023-04-01T15:36:56;5.33;;;5.03;;
8102;SDS011;4094;49.948;11.574;2023-04-01T15:39:30;5.23;;;5.03;;
8102;SDS011;4094;49.948;11.574;2023-04-01T15:42:23;4.87;;;4.67;;
8102;SDS011;4094;49.948;11.574;2023-04-01T15:45:16;4.90;;;4.70;;
8102;SDS011;4094;49.948;11.574;2023-04-01T15:47:53;4.80;;;4.60;;
8102;SDS011;4094;49.948;11.574;2023-04-01T15:56:43;4.93;;;4.73;;
8102;SDS011;4094;49.948;11.574;2023-04-01T15:59:27;5.20;;;5.00;;
8102;SDS011;4094;49.948;11.574;2023-04-01T16:02:11;5.50;;;5.20;;
8102;SDS011;4094;49.948;11.574;2023-04-01T16:04:47;5.07;;;4.87;;
8102;SDS011;4094;49.948;11.574;2023-04-01T16:07:27;5.17;;;4.97;;
8102;SDS011;4094;49.948;11.574;2023-04-01T16:10:17;5.57;;;5.27;;
8102;SDS011;4094;49.948;11.574;2023-04-01T16:12:56;5.17;;;4.97;;
8102;SDS011;4094;49.948;11.574;2023-04-01T16:15:34;5.00;;;4.70;;
8102;SDS011;4094;49.948;11.574;2023-04-01T16:18:13;5.03;;;4.83;;
8102;SDS011;4094;49.948;11.574;2023-04-01T16:20:54;4.77;;;4.57;;
8102;SDS011;4094;49.948;11.574;2023-04-01T16:23:30;4.80;;;4.60;;
8102;SDS011;4094;49.948;11.574;2023-04-01T16:26:06;4.73;;;4.53;;
8102;SDS011;4094;49.948;11.574;2023-04-01T16:28:39;5.07;;;4.87;;
8102;SDS011;4094;49.948;11.574;2023-04-01T16:31:16;5.50;;;5.30;;
8102;SDS011;4094;49.948;11.574;2023-04-01T16:34:01;5.30;;;5.00;;
8102;SDS011;4094;49.948;11.574;2023-04-01T16:36:37;5.47;;;5.17;;
8102;SDS011;4094;49.948;11.574;2023-04-01T16:39:22;5.40;;;5.10;;
8102;SDS011;4094;49.948;11.574;2023-04-01T16:42:08;5.37;;;5.07;;
8102;SDS011;4094;49.948;11.574;2023-04-01T16:44:47;5.90;;;5.50;;
8102;SDS011;4094;49.948;11.574;2023-04-01T16:47:27;4.93;;;4.70;;
8102;SDS011;4094;49.948;11.574;2023-04-01T16:50:05;5.40;;;5.10;;
8102;SDS011;4094;49.948;11.574;2023-04-01T16:52:48;6.37;;;5.83;;
8102;SDS011;4094;49.948;11.574;2023-04-01T16:55:34;4.87;;;4.67;;
8102;SDS011;4094;49.948;11.574;2023-04-01T16:58:05;5.43;;;5.20;;
8102;SDS011;4094;49.948;11.574;2023-04-01T17:00:38;5.67;;;5.37;;
8102;SDS011;4094;49.948;11.574;2023-04-01T17:03:11;5.00;;;4.80;;
8102;SDS011;4094;49.948;11.574;2023-04-01T17:05:48;5.50;;;5.10;;
8102;SDS011;4094;49.948;11.574;2023-04-01T17:08:29;5.50;;;5.20;;
8102;SDS011;4094;49.948;11.574;2023-04-01T17:11:07;5.47;;;5.13;;
8102;SDS011;4094;49.948;11.574;2023-04-01T17:13:46;5.60;;;5.30;;
8102;SDS011;4094;49.948;11.574;2023-04-01T17:16:25;5.47;;;5.17;;
8102;SDS011;4094;49.948;11.574;2023-04-01T17:19:12;5.47;;;5.20;;
8102;SDS011;4094;49.948;11.574;2023-04-01T17:21:53;5.50;;;5.20;;
8102;SDS011;4094;49.948;11.574;2023-04-01T17:24:32;5.50;;;5.20;;
8102;SDS011;4094;49.948;11.574;2023-04-01T17:27:15;5.50;;;5.20;;
8102;SDS011;4094;49.948;11.574;2023-04-01T17:32:58;5.50;;;5.20;;
8102;SDS011;4094;49.948;11.574;2023-04-01T17:35:39;5.50;;;5.20;;
8102;SDS011;4094;49.948;11.574;2023-04-01T17:38:16;5.73;;;5.43;;
8102;SDS011;4094;49.948;11.574;2023-04-01T17:40:53;4.87;;;4.57;;
8102;SDS011;4094;49.948;11.574;2023-04-01T17:43:34;5.60;;;5.30;;
8102;SDS011;4094;49.948;11.574;2023-04-01T17:46:20;5.33;;;5.13;;
8102;SDS011;4094;49.948;11.574;2023-04-01T17:48:59;5.80;;;5.50;;
8102;SDS011;4094;49.948;11.574;2023-04-01T17:51:40;5.30;;;5.10;;
8102;SDS011;4094;49.948;11.574;2023-04-01T17:54:21;5.00;;;4.73;;
8102;SDS011;4094;49.948;11.574;2023-04-01T17:57:06;5.50;;;5.30;;
8102;SDS011;4094;49.948;11.574;2023-04-01T18:00:03;5.67;;;5.40;;
8102;SDS011;4094;49.948;11.574;2023-04-01T18:02:42;4.77;;;4.57;;